Data for 10/30/2014

Time Sea-Level Adjusted Pressure Absolute Pressure Temperature Relative Humidity Dew Point   
(mb) (inHg) (mb) (inHg) (C) (F) (%) (C) (F)
00:05 1025 30.27 854 25.22 2.8 37 61 -4.1 24.7
00:10 1025 30.27 854 25.22 2.6 36.6 61 -4.2 24.4
00:15 1025 30.27 854 25.22 2.7 36.9 60 -4.2 24.5
00:20 1025 30.27 855 25.25 2.7 36.9 61 -4.1 24.6
00:25 1025 30.27 855 25.25 2.6 36.6 61 -4.2 24.4
00:30 1025 30.27 855 25.25 2.8 37 59 -4.4 24.1
00:35 1025 30.27 855 25.25 3 37.5 58 -4.4 24.1
00:40 1025 30.27 855 25.25 3.2 37.7 59 -4 24.8
00:45 1025 30.27 855 25.25 2.9 37.3 59 -4.2 24.4
00:50 1025 30.27 855 25.25 2.9 37.3 59 -4.2 24.4
00:55 1025 30.27 855 25.25 2.7 36.9 60 -4.2 24.4
01:00 1025 30.27 855 25.25 2.6 36.6 61 -4.1 24.5
01:05 1025 30.27 855 25.25 2.5 36.4 62 -4.2 24.5
01:10 1025 30.27 855 25.25 2.4 36.4 61 -4.4 24.1
01:15 1025 30.27 855 25.25 2.4 36.3 61 -4.4 24.1
01:20 1026 30.3 855 25.25 2.6 36.7 59 -4.6 23.8
01:25 1026 30.3 855 25.25 2.9 37.2 59 -4.4 24.1
01:30 1026 30.3 855 25.25 3.1 37.6 58 -4.4 24
01:35 1026 30.3 855 25.25 3.3 37.9 57 -4.5 23.9
01:40 1026 30.3 855 25.25 3.4 38.2 57 -4.4 24.1
01:45 1026 30.3 855 25.25 3.6 38.4 56 -4.4 24.1
01:50 1026 30.3 855 25.25 3.4 38.1 57 -4.3 24.2
01:55 1026 30.3 855 25.25 3.5 38.2 56 -4.6 23.8
02:00 1026 30.3 855 25.25 3.5 38.4 56 -4.5 23.9
02:05 1026 30.3 855 25.25 3.8 38.9 54 -4.6 23.8
02:10 1026 30.3 855 25.25 3.5 38.3 57 -4.2 24.5
02:15 1026 30.3 855 25.25 3.1 37.5 59 -4.3 24.3
02:20 1026 30.3 855 25.25 2.8 37.1 58 -4.5 23.8
02:25 1026 30.3 855 25.25 3 37.4 58 -4.4 24.1
02:30 1026 30.3 855 25.25 3.1 37.6 58 -4.4 24.1
02:35 1026 30.3 855 25.25 3.1 37.6 58 -4.3 24.3
02:40 1026 30.3 855 25.25 3 37.4 59 -4.3 24.3
02:45 1026 30.3 855 25.25 2.9 37.2 59 -4.2 24.4
02:50 1026 30.3 855 25.25 3 37.3 59 -4.2 24.4
02:55 1026 30.3 855 25.25 3.2 37.7 58 -4.3 24.2
03:00 1025 30.27 855 25.25 3.3 38 58 -4.2 24.5
03:05 1026 30.3 855 25.25 3.3 38 58 -4.1 24.6
03:10 1026 30.3 855 25.25 3.1 37.6 59 -4 24.7
03:15 1026 30.3 855 25.25 3 37.4 59 -4.2 24.4
03:20 1026 30.3 855 25.25 3.3 37.9 58 -4.2 24.5
03:25 1026 30.3 855 25.25 3.4 38.2 58 -4 24.9
03:30 1026 30.3 855 25.25 3.6 38.5 58 -3.9 25
03:35 1026 30.3 855 25.25 3.5 38.2 59 -3.8 25.1
03:40 1026 30.3 855 25.25 3.4 38.1 58 -4.1 24.5
03:45 1026 30.3 855 25.25 3.6 38.6 58 -3.9 25.1
03:50 1026 30.3 855 25.25 3.5 38.2 59 -3.8 25.2
03:55 1026 30.3 855 25.25 3.3 38 59 -4 24.8
04:00 1026 30.3 855 25.25 3.6 38.4 58 -3.9 25
04:05 1026 30.3 855 25.25 3.5 38.2 59 -3.8 25.1
04:10 1026 30.3 855 25.25 3.5 38.4 57 -4.2 24.5
04:15 1025 30.27 855 25.25 3.8 38.8 58 -3.9 25.1
04:20 1025 30.27 855 25.25 3.8 38.8 58 -3.8 25.1
04:25 1025 30.27 855 25.25 3.9 39.1 57 -3.9 25
04:30 1025 30.27 855 25.25 4.1 39.3 56 -3.9 25
04:35 1025 30.27 855 25.25 4.1 39.4 56 -3.8 25.2
04:40 1025 30.27 855 25.25 4.1 39.4 57 -3.7 25.4
04:45 1025 30.27 855 25.25 4.1 39.4 57 -3.6 25.5
04:50 1025 30.27 855 25.25 4.1 39.4 58 -3.4 25.8
04:55 1025 30.27 855 25.25 4 39.2 58 -3.4 25.8
05:00 1025 30.27 855 25.25 4 39.2 58 -3.6 25.5
05:05 1025 30.27 855 25.25 4.1 39.3 57 -3.6 25.6
05:10 1025 30.27 855 25.25 4.2 39.5 58 -3.4 25.8
05:15 1025 30.27 855 25.25 4.1 39.4 58 -3.3 26
05:20 1025 30.27 855 25.25 4.1 39.4 58 -3.5 25.7
05:25 1025 30.27 855 25.25 4.1 39.4 59 -3.3 26.1
05:30 1025 30.27 855 25.25 4 39.1 58 -3.6 25.6
05:35 1026 30.3 855 25.25 4.2 39.6 57 -3.7 25.4
05:40 1025 30.27 855 25.25 4.3 39.7 57 -3.4 25.9
05:45 1025 30.27 855 25.25 4.1 39.5 58 -3.4 25.9
05:50 1025 30.27 855 25.25 4.1 39.4 58 -3.4 25.9
05:55 1025 30.27 855 25.25 4.1 39.4 58 -3.4 25.9
06:00 1025 30.27 855 25.25 4.1 39.3 58 -3.4 25.9
06:05 1026 30.3 855 25.25 4 39.2 59 -3.3 26
06:10 1026 30.3 855 25.25 3.9 39.1 58 -3.6 25.5
06:15 1026 30.3 855 25.25 4 39.2 59 -3.3 26.1
06:20 1025 30.27 855 25.25 3.9 39 59 -3.5 25.8
06:25 1025 30.27 855 25.25 3.9 39 59 -3.4 25.9
06:30 1025 30.27 855 25.25 3.8 38.9 59 -3.4 25.8
06:35 1025 30.27 855 25.25 3.9 39 59 -3.3 26
06:40 1025 30.27 855 25.25 3.9 39 59 -3.4 25.8
06:45 1025 30.27 855 25.25 3.9 39.1 59 -3.3 26.1
06:50 1025 30.27 855 25.25 3.7 38.7 61 -3.1 26.4
06:55 1025 30.27 855 25.25 3.6 38.5 61 -3.1 26.4
07:00 1025 30.27 855 25.25 3.7 38.7 61 -3.2 26.3
07:05 1026 30.3 855 25.25 3.8 38.8 61 -3.1 26.4
07:10 1026 30.3 855 25.25 3.9 39.1 60 -3 26.5
07:15 1026 30.3 855 25.25 4 39.2 60 -3.1 26.4
07:20 1026 30.3 855 25.25 4.1 39.4 60 -2.9 26.8
07:25 1026 30.3 855 25.25 4.1 39.4 62 -2.5 27.5
07:30 1026 30.3 855 25.25 3.9 39.1 63 -2.5 27.6
07:35 1026 30.3 855 25.25 3.8 38.9 64 -2.4 27.7
07:40 1026 30.3 855 25.25 3.6 38.6 65 -2.3 27.8
07:45 1026 30.3 855 25.25 3.5 38.4 65 -2.4 27.7
07:50 1026 30.3 855 25.25 3.5 38.4 64 -2.6 27.4
07:55 1026 30.3 855 25.25 3.6 38.5 62 -2.9 26.7
08:00 1026 30.3 855 25.25 3.9 39 62 -2.7 27.1
08:05 1026 30.3 855 25.25 4.1 39.5 60 -2.8 26.9
08:10 1026 30.3 855 25.25 4.2 39.6 62 -2.4 27.6
08:15 1026 30.3 855 25.25 4.2 39.6 62 -2.4 27.7
08:20 1026 30.3 855 25.25 4.2 39.6 60 -2.8 27
08:25 1026 30.3 855 25.25 4.1 39.3 62 -2.4 27.6
08:30 1026 30.3 855 25.25 4 39.2 62 -2.7 27.2
08:35 1026 30.3 855 25.25 4.2 39.6 63 -2.3 27.9
08:40 1026 30.3 855 25.25 4.3 39.8 63 -2.1 28.1
08:45 1026 30.3 855 25.25 4.5 40.1 62 -2.1 28.3
08:50 1026 30.3 855 25.25 4.8 40.6 60 -2.3 27.8
08:55 1026 30.3 855 25.25 5.3 41.5 58 -2.3 27.8
09:00 1026 30.3 855 25.25 5.6 42.1 58 -2 28.4
09:05 1026 30.3 855 25.25 5.8 42.4 57 -2.2 28
09:10 1026 30.3 855 25.25 6.1 43 56 -1.9 28.6
09:15 1026 30.3 855 25.25 6 42.9 57 -1.8 28.8
09:20 1026 30.3 855 25.25 5.9 42.6 56 -2.2 28.1
09:25 1026 30.3 855 25.25 6.4 43.5 54 -2.2 28.1
09:30 1026 30.3 855 25.25 6.7 44 52 -2.6 27.4
09:35 1026 30.3 855 25.25 6.7 44.1 51 -2.7 27.2
09:40 1026 30.3 855 25.25 6.5 43.8 51 -2.9 26.7
09:45 1026 30.3 855 25.25 7.1 44.7 49 -2.9 26.8
09:50 1026 30.3 855 25.25 7.4 45.4 49 -2.6 27.3
09:55 1026 30.3 855 25.25 7.7 45.8 48 -2.6 27.4
10:00 1026 30.3 855 25.25 7.3 45.1 48 -3 26.5
10:05 1026 30.3 855 25.25 7.4 45.3 45 -3.7 25.4
10:10 1026 30.3 855 25.25 7.5 45.5 47 -3.1 26.4
10:15 1026 30.3 855 25.25 7.4 45.3 46 -3.6 25.6
10:20 1026 30.3 855 25.25 7.5 45.5 46 -3.3 26.1
10:25 1026 30.3 855 25.25 7.4 45.3 48 -3 26.6
10:30 1026 30.3 855 25.25 7.6 45.8 47 -3 26.5
10:35 1026 30.3 855 25.25 8.2 46.7 44 -3.2 26.3
10:40 1026 30.3 855 25.25 8.4 47.2 44 -3.2 26.2
10:45 1026 30.3 855 25.25 9 48.1 44 -2.7 27.1
10:50 1026 30.3 855 25.25 9.5 49.1 41 -2.9 26.8
10:55 1026 30.3 855 25.25 9.6 49.3 42 -2.7 27.1
11:00 1026 30.3 855 25.25 9.7 49.4 42 -2.6 27.3
11:05 1026 30.3 855 25.25 9.8 49.7 42 -2.6 27.4
11:10 1026 30.3 855 25.25 9.8 49.6 44 -2 28.4
11:15 1026 30.3 855 25.25 9.7 49.5 42 -2.6 27.3
11:20 1026 30.3 855 25.25 10.1 50.2 40 -2.7 27.1
11:25 1025 30.27 855 25.25 10.7 51.3 40 -2.4 27.7
11:30 1025 30.27 855 25.25 10.8 51.5 40 -2.1 28.2
11:35 1025 30.27 855 25.25 10.3 50.5 41 -2.5 27.5
11:40 1025 30.27 855 25.25 11.3 52.3 38 -2.4 27.6
11:45 1025 30.27 854 25.22 11 51.8 39 -2.3 27.9
11:50 1025 30.27 854 25.22 11 51.8 40 -2 28.4
11:55 1025 30.27 854 25.22 10.7 51.2 40 -2.3 27.9
12:00 1025 30.27 854 25.22 11.1 51.9 39 -2.4 27.6
12:05 1025 30.27 854 25.22 11.3 52.3 39 -2.1 28.2
12:10 1025 30.27 854 25.22 11.4 52.5 38 -2.2 28
12:15 1025 30.27 854 25.22 11.4 52.5 41 -1.5 29.4
12:20 1025 30.27 854 25.22 10.7 51.3 40 -2.3 27.9
12:25 1025 30.27 854 25.22 10.6 51.2 40 -2.5 27.5
12:30 1025 30.27 854 25.22 10.5 50.9 40 -2.4 27.7
12:35 1025 30.27 854 25.22 11.2 52.2 38 -2.5 27.4
12:40 1025 30.27 854 25.22 11.8 53.2 37 -2.4 27.7
12:45 1025 30.27 854 25.22 11.8 53.2 38 -2.2 28.1
12:50 1025 30.27 854 25.22 11.1 52 40 -1.8 28.8
12:55 1025 30.27 854 25.22 11.1 51.9 38 -2.6 27.3
13:00 1025 30.27 854 25.22 11.8 53.3 36 -2.7 27.2
13:05 1025 30.27 854 25.22 12.4 54.4 35 -2.7 27.2
13:10 1025 30.27 854 25.22 11.8 53.2 38 -2 28.4
13:15 1025 30.27 854 25.22 12 53.5 37 -2.4 27.7
13:20 1024 30.24 854 25.22 12.8 55.1 34 -2.4 27.6
13:25 1024 30.24 854 25.22 12.9 55.3 35 -2.3 27.9
13:30 1024 30.24 854 25.22 13.3 55.9 34 -2.3 27.8
13:35 1024 30.24 853 25.19 13.1 55.6 34 -2.2 28
13:40 1024 30.24 853 25.19 13.3 56 33 -2.5 27.5
13:45 1024 30.24 853 25.19 13.5 56.4 34 -2.1 28.3
13:50 1024 30.24 853 25.19 13.3 56 35 -1.8 28.7
13:55 1024 30.24 853 25.19 13.5 56.2 34 -1.9 28.5
14:00 1024 30.24 853 25.19 13.8 56.9 33 -2.2 28.1
14:05 1024 30.24 853 25.19 14.1 57.4 32 -2.1 28.2
14:10 1024 30.24 853 25.19 14.6 58.2 32 -1.7 29
14:15 1024 30.24 853 25.19 14.1 57.4 32 -2.1 28.3
14:20 1024 30.24 853 25.19 14.5 58 32 -1.9 28.5
14:25 1024 30.24 853 25.19 14.5 58.2 33 -1.4 29.5
14:30 1024 30.24 853 25.19 13.9 57 33 -1.9 28.6
14:35 1024 30.24 853 25.19 13.8 56.9 33 -2 28.4
14:40 1023 30.21 853 25.19 13.5 56.4 34 -1.8 28.8
14:45 1023 30.21 853 25.19 13.5 56.3 34 -1.9 28.5
14:50 1023 30.21 853 25.19 13.6 56.4 34 -1.8 28.8
14:55 1023 30.21 853 25.19 13.8 56.8 34 -1.9 28.6
15:00 1023 30.21 853 25.19 14.3 57.7 33 -1.8 28.8
15:05 1023 30.21 853 25.19 14.5 58.1 33 -1.7 28.9
15:10 1023 30.21 853 25.19 14.5 58.2 32 -1.7 28.9
15:15 1023 30.21 853 25.19 14.4 58 32 -2 28.5
15:20 1023 30.21 852 25.16 14.2 57.5 32 -2.1 28.1
15:25 1023 30.21 853 25.19 14.1 57.3 32 -2.2 28
15:30 1023 30.21 852 25.16 14 57.3 32 -2.2 28.1
15:35 1023 30.21 852 25.16 14 57.2 33 -2.1 28.2
15:40 1023 30.21 852 25.16 13.5 56.2 33 -2.3 27.9
15:45 1023 30.21 852 25.16 13.2 55.8 34 -2.4 27.8
15:50 1023 30.21 852 25.16 13 55.5 34 -2.5 27.5
15:55 1023 30.21 852 25.16 12.8 55 35 -2.3 27.9
16:00 1023 30.21 852 25.16 12.5 54.5 35 -2.3 27.8
16:05 1023 30.21 852 25.16 12.4 54.2 35 -2.4 27.6
16:10 1023 30.21 852 25.16 12.2 54 36 -2.3 27.8
16:15 1023 30.21 852 25.16 12.1 53.7 36 -2.5 27.6
16:20 1023 30.21 852 25.16 12 53.6 37 -2.3 27.9
16:25 1023 30.21 852 25.16 11.8 53.3 37 -2.4 27.8
16:30 1023 30.21 852 25.16 11.7 53 38 -2.2 28
16:35 1023 30.21 852 25.16 11.5 52.7 38 -2.2 28
16:40 1023 30.21 852 25.16 11.5 52.6 39 -2.1 28.2
16:45 1023 30.21 852 25.16 11.5 52.7 39 -2.1 28.3
16:50 1023 30.21 852 25.16 11.5 52.6 39 -2 28.4
16:55 1023 30.21 852 25.16 11.4 52.5 39 -2 28.3
17:00 1022 30.18 852 25.16 11.4 52.6 39 -2.2 28.1
17:05 1022 30.18 852 25.16 11.4 52.6 38 -2.2 28
17:10 1022 30.18 852 25.16 11.4 52.5 39 -2.1 28.2
17:15 1022 30.18 852 25.16 11.4 52.4 39 -2.1 28.1
17:20 1022 30.18 852 25.16 11.4 52.4 39 -2.2 28.1
17:25 1022 30.18 852 25.16 11.3 52.4 38 -2.4 27.7
17:30 1022 30.18 851 25.13 11.3 52.4 38 -2.5 27.5
17:35 1022 30.18 851 25.13 11.4 52.5 38 -2.4 27.7
17:40 1022 30.18 851 25.13 11.4 52.4 38 -2.5 27.5
17:45 1022 30.18 851 25.13 11.3 52.3 37 -2.7 27.2
17:50 1022 30.18 851 25.13 11.3 52.3 37 -2.7 27.1
17:55 1022 30.18 851 25.13 11.2 52.2 37 -2.8 27
18:00 1022 30.18 851 25.13 11.2 52.1 38 -2.7 27.1
18:05 1022 30.18 851 25.13 11.1 51.9 38 -2.8 27
18:10 1022 30.18 851 25.13 11 51.7 38 -2.6 27.3
18:15 1022 30.18 851 25.13 10.8 51.5 39 -2.7 27.2
18:20 1022 30.18 851 25.13 10.8 51.4 38 -3.1 26.4
18:25 1022 30.18 851 25.13 10.8 51.4 37 -3.2 26.3
18:30 1022 30.18 851 25.13 10.7 51.3 38 -3.1 26.4
18:35 1022 30.18 851 25.13 10.6 51.1 37 -3.3 26.1
18:40 1022 30.18 851 25.13 10.6 51 37 -3.3 26.1
18:45 1022 30.18 851 25.13 10.5 51 37 -3.4 25.9
18:50 1022 30.18 851 25.13 10.5 50.9 38 -3.3 26
18:55 1022 30.18 851 25.13 10.4 50.7 38 -3.3 26
19:00 1022 30.18 851 25.13 10.4 50.7 38 -3.4 25.9
19:05 1022 30.18 851 25.13 10.4 50.6 38 -3.4 26
19:10 1022 30.18 851 25.13 10.3 50.6 38 -3.2 26.2
19:15 1022 30.18 851 25.13 10.2 50.4 38 -3.3 26.1
19:20 1022 30.18 851 25.13 10.3 50.5 38 -3.3 26.1
19:25 1022 30.18 851 25.13 10.2 50.4 39 -3.2 26.2
19:30 1022 30.18 851 25.13 10.1 50.2 39 -3.2 26.2
19:35 1022 30.18 851 25.13 10.2 50.3 39 -3.2 26.3
19:40 1022 30.18 851 25.13 10.1 50.2 39 -3.1 26.4
19:45 1022 30.18 851 25.13 10.1 50.1 39 -3.2 26.2
19:50 1022 30.18 851 25.13 10 50.1 39 -3.1 26.5
19:55 1022 30.18 851 25.13 10 50 40 -3.1 26.5
20:00 1022 30.18 851 25.13 10 49.9 40 -3 26.6
20:05 1022 30.18 851 25.13 9.9 49.8 40 -3.1 26.4
20:10 1022 30.18 851 25.13 9.9 49.8 40 -3 26.6
20:15 1022 30.18 851 25.13 9.8 49.7 40 -3 26.6
20:20 1022 30.18 851 25.13 9.8 49.6 41 -3 26.7
20:25 1021 30.15 851 25.13 9.7 49.5 41 -3 26.7
20:30 1021 30.15 851 25.13 9.7 49.4 41 -2.9 26.8
20:35 1021 30.15 851 25.13 9.6 49.2 41 -2.9 26.8
20:40 1021 30.15 851 25.13 9.5 49.1 41 -2.9 26.7
20:45 1021 30.15 851 25.13 9.5 49 42 -2.9 26.7
20:50 1021 30.15 851 25.13 9.5 49.1 42 -2.9 26.9
20:55 1021 30.15 851 25.13 9.5 49 42 -2.9 26.8
21:00 1021 30.15 850 25.1 9.5 49 42 -2.8 26.9
21:05 1021 30.15 850 25.1 9.3 48.8 42 -2.8 26.9
21:10 1021 30.15 850 25.1 9.4 48.9 42 -2.8 26.9
21:15 1021 30.15 850 25.1 9.4 48.9 42 -2.8 26.9
21:20 1021 30.15 850 25.1 9.4 48.8 43 -2.6 27.3
21:25 1021 30.15 850 25.1 9.2 48.6 43 -2.7 27.1
21:30 1021 30.15 850 25.1 9.2 48.6 43 -2.7 27.2
21:35 1021 30.15 850 25.1 9.2 48.5 43 -2.7 27.1
21:40 1021 30.15 850 25.1 9.1 48.5 43 -2.7 27.1
21:45 1021 30.15 850 25.1 9.1 48.4 43 -2.7 27.2
21:50 1021 30.15 850 25.1 9.1 48.5 43 -2.7 27.1
21:55 1021 30.15 850 25.1 9.1 48.4 43 -2.7 27.1
22:00 1021 30.15 850 25.1 9.1 48.5 44 -2.5 27.4
22:05 1021 30.15 850 25.1 9 48.2 44 -2.6 27.3
22:10 1021 30.15 850 25.1 9 48.2 44 -2.6 27.3
22:15 1021 30.15 850 25.1 9 48.1 44 -2.5 27.4
22:20 1021 30.15 850 25.1 8.9 48 44 -2.6 27.4
22:25 1020 30.12 850 25.1 8.9 48.1 44 -2.5 27.4
22:30 1020 30.12 850 25.1 8.9 48 44 -2.5 27.5
22:35 1020 30.12 850 25.1 8.8 47.8 45 -2.4 27.7
22:40 1020 30.12 849 25.07 8.7 47.6 45 -2.5 27.5
22:45 1020 30.12 849 25.07 8.8 47.8 45 -2.4 27.7
22:50 1020 30.12 849 25.07 8.8 47.8 44 -2.6 27.3
22:55 1020 30.12 849 25.07 8.9 47.9 45 -2.5 27.5
23:00 1020 30.12 849 25.07 8.9 47.9 45 -2.4 27.6
23:05 1020 30.12 849 25.07 8.9 47.9 45 -2.5 27.5
23:10 1020 30.12 849 25.07 8.9 47.9 45 -2.5 27.5
23:15 1020 30.12 849 25.07 8.9 48 45 -2.4 27.6
23:20 1020 30.12 849 25.07 8.9 48.1 44 -2.5 27.5
23:25 1020 30.12 849 25.07 9 48.2 44 -2.5 27.6
23:30 1020 30.12 849 25.07 9 48.1 44 -2.5 27.4
23:35 1020 30.12 849 25.07 9.1 48.3 44 -2.5 27.5
23:40 1020 30.12 849 25.07 9.1 48.3 44 -2.5 27.4
23:45 1020 30.12 849 25.07 9 48.3 44 -2.5 27.5
23:50 1019 30.09 849 25.07 9 48.1 45 -2.4 27.6
23:55 1019 30.09 849 25.07 9 48.1 44 -2.5 27.5
24:00 1019 30.09 849 25.07 9 48.2 44 -2.4 27.6